Terminal Aerodrome Forecast
Issued by NWS Amarillo, TX

Home | Current Version | Previous Version | Text Only | Print | Product List | Glossary On
Versions: 1 2 3 4 5 6 7 8 9 10 11 12 13 14
000
FTUS44 KAMA 281720
TAFAMA
TAF
KAMA 281720Z 2818/2918 VRB05KT P6SM SKC
     FM282100 17008KT P6SM SCT090
     FM290900 18013KT P6SM OVC030 PROB30 2912/2918 P6SM -TSRA
      OVC040CB=

USA.gov is the U.S. government's official web portal to all federal, state and local government web resources and services.